Time;durP1;ratioP1;P1;durP2;ratioP2;P2;SDS_P1;SDS_P2;PMS_P1;PMS_P2;Temp;Humidity;BMP_temperature;BMP_pressure;BME280_temperature;BME280_humidity;BME280_pressure;Samples;Min_cycle;Max_cycle;Signal;HPM_P1;HPM_P2
2023/08/03 00:00:33;;;;;;;2.70;1.00;;;;;;;15.76;100.00;98932.47;5099559;28;20051;-57
2023/08/03 00:02:59;;;;;;;1.58;0.98;;;;;;;15.75;100.00;98935.31;5096084;28;20031;-56
2023/08/03 00:05:24;;;;;;;2.53;1.10;;;;;;;15.77;100.00;98931.47;5102357;28;20110;-56
2023/08/03 00:07:50;;;;;;;1.60;1.05;;;;;;;15.77;100.00;98939.50;5093760;28;20082;-56
2023/08/03 00:10:17;;;;;;;2.25;1.15;;;;;;;15.77;100.00;98944.84;5094735;28;20062;-54
2023/08/03 00:12:43;;;;;;;2.63;1.60;;;;;;;15.79;100.00;98947.34;5095986;28;20019;-55
2023/08/03 00:15:10;;;;;;;5.55;1.50;;;;;;;15.79;100.00;98953.50;5094818;28;20114;-53
2023/08/03 00:17:37;;;;;;;5.18;1.85;;;;;;;15.80;100.00;98949.78;5093296;28;20103;-56
2023/08/03 00:20:04;;;;;;;5.13;2.15;;;;;;;15.82;100.00;98954.94;5101621;28;20032;-53
2023/08/03 00:22:30;;;;;;;9.35;2.40;;;;;;;15.80;100.00;98949.78;5100567;28;20027;-53
2023/08/03 00:24:56;;;;;;;5.45;2.47;;;;;;;15.83;100.00;98959.28;5097894;28;20032;-54
2023/08/03 00:27:21;;;;;;;5.40;2.30;;;;;;;15.84;100.00;98956.41;5101935;28;20069;-53
2023/08/03 00:29:46;;;;;;;7.03;2.78;;;;;;;15.85;100.00;98963.44;5098380;28;20028;-53
2023/08/03 00:32:12;;;;;;;7.32;3.00;;;;;;;15.86;100.00;98967.72;5093958;28;20393;-55
2023/08/03 00:34:37;;;;;;;13.68;3.50;;;;;;;15.86;100.00;98972.28;5101348;28;20024;-53
2023/08/03 00:37:03;;;;;;;7.00;3.40;;;;;;;15.86;100.00;98975.75;5096735;28;20034;-53
2023/08/03 00:39:28;;;;;;;6.45;3.38;;;;;;;15.89;100.00;98986.09;5098600;28;20461;-53
2023/08/03 00:41:54;;;;;;;12.48;4.30;;;;;;;15.90;100.00;98981.53;5098307;28;20077;-56
2023/08/03 00:44:19;;;;;;;6.88;3.70;;;;;;;15.89;100.00;98993.31;5101114;28;20016;-54
2023/08/03 00:46:45;;;;;;;9.32;4.70;;;;;;;15.90;100.00;99005.66;5096757;28;20063;-55
2023/08/03 00:49:11;;;;;;;6.78;3.90;;;;;;;15.90;100.00;98997.63;5097398;28;20044;-52
2023/08/03 00:51:36;;;;;;;9.95;4.30;;;;;;;15.89;100.00;99017.41;5095882;28;20059;-52
2023/08/03 00:54:02;;;;;;;10.02;4.57;;;;;;;15.89;100.00;99018.22;5096534;28;20350;-54
2023/08/03 00:56:27;;;;;;;9.00;4.55;;;;;;;15.91;100.00;99023.38;5090664;28;20020;-54
2023/08/03 00:58:53;;;;;;;11.00;4.93;;;;;;;15.92;100.00;99033.06;5094008;28;20064;-56
2023/08/03 01:01:20;;;;;;;9.68;5.03;;;;;;;15.96;100.00;99044.22;5100642;28;20491;-53
2023/08/03 01:03:46;;;;;;;13.85;5.47;;;;;;;15.96;100.00;99028.16;5095518;28;20480;-56
2023/08/03 01:06:12;;;;;;;15.13;4.93;;;;;;;15.97;100.00;99038.66;5101354;28;20031;-53
2023/08/03 01:08:37;;;;;;;11.20;5.30;;;;;;;15.98;100.00;99039.47;5100429;28;20099;-55
2023/08/03 01:11:03;;;;;;;11.73;5.07;;;;;;;15.97;100.00;99037.81;5099236;28;20020;-54
2023/08/03 01:13:28;;;;;;;9.70;5.22;;;;;;;15.95;100.00;99035.31;5102036;28;20042;-56
2023/08/03 01:15:54;;;;;;;10.32;5.50;;;;;;;15.99;100.00;99047.31;5085633;28;20036;-56
2023/08/03 01:18:20;;;;;;;9.32;5.20;;;;;;;15.97;100.00;99045.84;5094274;28;20019;-60
2023/08/03 01:20:46;;;;;;;13.18;5.00;;;;;;;15.97;100.00;99062.75;5102479;28;20028;-55
2023/08/03 01:23:12;;;;;;;8.68;4.88;;;;;;;15.98;100.00;99058.22;5105182;28;20020;-54
2023/08/03 01:25:37;;;;;;;11.80;5.03;;;;;;;15.98;100.00;99063.56;5096167;28;20507;-53
2023/08/03 01:28:03;;;;;;;10.13;4.88;;;;;;;15.98;100.00;99072.44;5103645;28;20028;-57
2023/08/03 01:30:29;;;;;;;9.15;4.68;;;;;;;15.98;100.00;99077.78;5102582;28;20414;-54
2023/08/03 01:32:54;;;;;;;7.25;4.25;;;;;;;15.96;100.00;99074.47;5101889;28;20031;-57
2023/08/03 01:35:20;;;;;;;12.63;5.03;;;;;;;15.97;100.00;99086.00;5103908;28;20032;-54
2023/08/03 01:37:45;;;;;;;8.18;3.92;;;;;;;15.97;100.00;99078.81;5099910;28;20032;-56
2023/08/03 01:40:11;;;;;;;12.38;3.78;;;;;;;15.96;100.00;99085.19;5102257;28;20021;-55
2023/08/03 01:42:36;;;;;;;11.45;3.95;;;;;;;15.97;100.00;99092.22;5103119;28;20044;-57
2023/08/03 01:45:03;;;;;;;8.80;3.90;;;;;;;15.98;100.00;99093.03;5101434;28;20101;-53
2023/08/03 01:47:29;;;;;;;11.45;4.00;;;;;;;15.99;100.00;99092.03;5099366;28;20035;-54
2023/08/03 01:49:54;;;;;;;8.57;3.65;;;;;;;15.99;100.00;99087.47;5097788;28;20024;-55
2023/08/03 01:52:19;;;;;;;8.93;3.42;;;;;;;15.98;100.00;99088.50;5104333;28;20024;-55
2023/08/03 01:54:44;;;;;;;11.30;3.15;;;;;;;15.98;100.00;99085.81;5101296;28;20074;-57
2023/08/03 01:57:10;;;;;;;7.85;2.95;;;;;;;15.98;100.00;99091.16;5102498;28;20070;-54
2023/08/03 01:59:35;;;;;;;7.13;2.70;;;;;;;15.98;100.00;99088.50;5097584;28;20332;-53
2023/08/03 02:02:00;;;;;;;10.27;2.90;;;;;;;16.00;100.00;99094.47;5103634;28;20273;-53
2023/08/03 02:04:26;;;;;;;4.25;2.20;;;;;;;15.98;100.00;99088.50;5084714;28;20492;-54
2023/08/03 02:06:56;;;;;;;5.88;2.30;;;;;;;15.97;100.00;99096.72;5099017;28;20680;-55
2023/08/03 02:09:21;;;;;;;9.25;2.55;;;;;;;15.96;100.00;99101.25;5100213;28;20084;-54
2023/08/03 02:11:46;;;;;;;7.30;2.60;;;;;;;15.93;100.00;99093.59;5098246;28;20024;-55
2023/08/03 02:14:12;;;;;;;8.48;2.72;;;;;;;15.94;100.00;99086.41;5096555;28;20478;-57
2023/08/03 02:16:37;;;;;;;9.85;3.22;;;;;;;15.94;100.00;99084.56;5100172;28;20023;-54
2023/08/03 02:19:02;;;;;;;11.77;3.40;;;;;;;15.94;100.00;99089.91;5099366;28;20062;-56
2023/08/03 02:21:28;;;;;;;10.80;3.78;;;;;;;15.93;100.00;99093.59;5102549;28;20069;-54
2023/08/03 02:23:53;;;;;;;14.30;4.00;;;;;;;15.94;100.00;99089.91;5094651;28;20027;-56
2023/08/03 02:26:18;;;;;;;12.98;3.85;;;;;;;15.95;100.00;99096.09;5098025;28;20023;-54
2023/08/03 02:28:44;;;;;;;14.27;4.00;;;;;;;15.94;100.00;99092.59;5100267;28;20437;-54
2023/08/03 02:31:09;;;;;;;13.45;4.00;;;;;;;15.93;100.00;99088.25;5100689;28;20027;-56
2023/08/03 02:33:35;;;;;;;16.40;3.83;;;;;;;15.95;100.00;99088.06;5099430;28;20024;-53
2023/08/03 02:36:00;;;;;;;13.02;3.55;;;;;;;15.93;100.00;99090.13;5103165;28;20036;-55
2023/08/03 02:38:26;;;;;;;16.45;4.55;;;;;;;15.89;100.00;99079.78;5100525;28;20032;-55
2023/08/03 02:40:52;;;;;;;17.10;4.38;;;;;;;15.90;100.00;99094.00;5101316;28;20055;-54
2023/08/03 02:43:17;;;;;;;17.98;5.13;;;;;;;15.88;100.00;99093.38;5102052;28;20072;-56
2023/08/03 02:45:42;;;;;;;17.00;4.10;;;;;;;15.86;100.00;99087.38;5093069;28;20114;-54
2023/08/03 02:48:08;;;;;;;16.25;4.85;;;;;;;15.85;100.00;99085.72;5097048;28;20035;-53
2023/08/03 02:50:33;;;;;;;14.13;4.32;;;;;;;15.84;100.00;99084.09;5097993;28;20035;-53
2023/08/03 02:52:58;;;;;;;14.27;3.92;;;;;;;15.84;100.00;99076.06;5100156;28;20081;-55
2023/08/03 02:55:24;;;;;;;16.42;4.50;;;;;;;15.82;100.00;99081.59;5093360;28;20389;-57
2023/08/03 02:57:49;;;;;;;15.40;4.55;;;;;;;15.83;100.00;99101.97;5099265;28;20489;-57
2023/08/03 03:00:14;;;;;;;16.98;3.88;;;;;;;15.80;100.00;99088.97;5091446;28;20036;-56
2023/08/03 03:02:40;;;;;;;15.10;3.75;;;;;;;15.79;100.00;99095.38;5097187;28;20055;-56
2023/08/03 03:05:05;;;;;;;20.15;4.78;;;;;;;15.77;100.00;99097.44;5097833;28;20386;-56
2023/08/03 03:07:31;;;;;;;14.07;3.65;;;;;;;15.77;100.00;99102.78;5099189;28;20030;-54
2023/08/03 03:09:57;;;;;;;16.88;4.30;;;;;;;15.76;100.00;99103.78;5093727;28;20025;-56
2023/08/03 03:12:22;;;;;;;15.23;4.00;;;;;;;15.78;100.00;99114.31;5099089;28;20085;-55
2023/08/03 03:14:48;;;;;;;16.80;3.50;;;;;;;15.76;100.00;99117.16;5100635;28;20024;-56
2023/08/03 03:17:13;;;;;;;18.40;4.82;;;;;;;15.73;100.00;99112.16;5101280;28;20504;-55
2023/08/03 03:19:38;;;;;;;16.38;3.75;;;;;;;15.72;100.00;99114.03;5096805;28;20123;-56
2023/08/03 03:22:04;;;;;;;13.77;4.00;;;;;;;15.73;100.00;99109.50;5100147;28;20035;-54
2023/08/03 03:24:29;;;;;;;15.18;3.80;;;;;;;15.73;100.00;99114.84;5100014;28;20059;-56
2023/08/03 03:26:55;;;;;;;14.10;3.40;;;;;;;15.71;100.00;99117.72;5102109;28;20114;-55
2023/08/03 03:29:20;;;;;;;16.48;3.63;;;;;;;15.72;100.00;99123.88;5094815;28;20081;-55
2023/08/03 03:31:46;;;;;;;13.45;3.95;;;;;;;15.71;100.00;99127.59;5095343;28;20057;-55
2023/08/03 03:34:12;;;;;;;12.20;3.45;;;;;;;15.70;100.00;99133.97;5096983;28;20030;-54
2023/08/03 03:36:37;;;;;;;11.32;3.42;;;;;;;15.70;100.00;99133.97;5101116;28;20397;-56
2023/08/03 03:39:02;;;;;;;11.68;3.38;;;;;;;15.69;100.00;99143.84;5095892;28;20432;-53
2023/08/03 03:41:27;;;;;;;13.65;3.67;;;;;;;15.67;100.00;99151.25;5100612;28;20028;-56
2023/08/03 03:43:53;;;;;;;10.52;3.20;;;;;;;15.66;100.00;99146.91;5099652;28;20043;-56
2023/08/03 03:46:18;;;;;;;12.40;3.38;;;;;;;15.67;100.00;99145.91;5097784;28;20024;-54
2023/08/03 03:48:43;;;;;;;12.57;4.03;;;;;;;15.65;100.00;99150.59;5099798;28;20381;-54
2023/08/03 03:51:09;;;;;;;11.60;3.50;;;;;;;15.64;100.00;99156.97;5099688;28;20114;-56
2023/08/03 03:53:34;;;;;;;10.95;3.20;;;;;;;15.64;100.00;99175.72;5091074;28;20099;-55
2023/08/03 03:56:00;;;;;;;12.40;2.92;;;;;;;15.66;100.00;99179.03;5099163;28;20028;-57
2023/08/03 03:58:25;;;;;;;7.95;3.08;;;;;;;15.67;100.00;99179.84;5098575;28;20032;-56
2023/08/03 04:00:50;;;;;;;10.77;2.72;;;;;;;15.66;100.00;99181.69;5101633;28;20112;-56
2023/08/03 04:03:15;;;;;;;14.07;3.00;;;;;;;15.66;100.00;99189.72;5090703;28;20026;-54
2023/08/03 04:05:41;;;;;;;8.30;2.80;;;;;;;15.66;100.00;99188.91;5097786;28;20492;-54
2023/08/03 04:08:06;;;;;;;9.57;2.80;;;;;;;15.66;100.00;99183.56;5098642;28;20024;-53
2023/08/03 04:10:32;;;;;;;7.25;2.92;;;;;;;15.67;100.00;99190.56;5097582;28;20473;-56
2023/08/03 04:12:57;;;;;;;8.40;2.47;;;;;;;15.65;100.00;99193.41;5097450;28;20031;-54
2023/08/03 04:15:23;;;;;;;6.60;2.63;;;;;;;15.65;100.00;99189.91;5095857;28;20031;-55
2023/08/03 04:17:49;;;;;;;7.43;2.72;;;;;;;15.62;100.00;99199.16;5099811;28;20028;-57
2023/08/03 04:20:15;;;;;;;5.18;2.47;;;;;;;15.59;100.00;99199.56;5096631;28;20111;-56
2023/08/03 04:22:41;;;;;;;9.00;2.85;;;;;;;15.58;100.00;99203.22;5098606;28;20042;-53
2023/08/03 04:25:07;;;;;;;6.75;2.78;;;;;;;15.56;100.00;99202.59;5093570;28;20024;-53
2023/08/03 04:27:32;;;;;;;7.57;2.90;;;;;;;15.54;100.00;99199.28;5091039;28;20024;-54
2023/08/03 04:29:58;;;;;;;12.55;3.03;;;;;;;15.52;100.00;99228.06;5095248;28;20031;-56
2023/08/03 04:32:23;;;;;;;7.07;2.67;;;;;;;15.51;100.00;99224.56;5095299;28;20121;-53
2023/08/03 04:34:48;;;;;;;6.90;2.53;;;;;;;15.45;100.00;99222.66;5097997;28;20284;-55
2023/08/03 04:37:13;;;;;;;6.72;2.47;;;;;;;15.47;100.00;99235.84;5095983;28;20032;-53
2023/08/03 04:39:39;;;;;;;8.57;2.40;;;;;;;15.47;100.00;99249.22;5089342;28;20032;-53
2023/08/03 04:42:04;;;;;;;4.10;2.30;;;;;;;15.45;100.00;99252.06;5098593;28;20139;-54
2023/08/03 04:44:30;;;;;;;5.43;2.10;;;;;;;15.44;100.00;99249.63;5098511;28;20081;-52
2023/08/03 04:46:55;;;;;;;5.13;2.15;;;;;;;15.44;100.00;99265.66;5095105;28;20039;-55
2023/08/03 04:49:22;;;;;;;5.22;2.55;;;;;;;15.44;100.00;99254.97;5098568;28;20023;-54
2023/08/03 04:51:48;;;;;;;4.95;2.17;;;;;;;15.43;100.00;99264.81;5094893;28;20032;-53
2023/08/03 04:54:13;;;;;;;6.38;2.30;;;;;;;15.44;100.00;99273.69;5098861;28;20025;-53
2023/08/03 04:56:39;;;;;;;4.10;2.17;;;;;;;15.43;100.00;99267.50;5099578;28;20114;-53
2023/08/03 04:59:04;;;;;;;4.57;2.22;;;;;;;15.44;100.00;99271.03;5102554;28;20056;-53
2023/08/03 05:01:30;;;;;;;8.02;2.30;;;;;;;15.45;100.00;99278.00;5099361;28;20032;-53
2023/08/03 05:03:55;;;;;;;4.43;2.40;;;;;;;15.45;100.00;99286.84;5099429;28;20107;-53
2023/08/03 05:06:20;;;;;;;4.95;2.25;;;;;;;15.45;100.00;99281.50;5104877;28;20032;-53
2023/08/03 05:08:46;;;;;;;8.80;2.60;;;;;;;15.47;100.00;99292.03;5101268;28;20078;-53
2023/08/03 05:11:11;;;;;;;6.65;2.30;;;;;;;15.46;100.00;99290.38;5098695;28;20024;-57
2023/08/03 05:13:37;;;;;;;7.65;2.13;;;;;;;15.47;100.00;99308.06;5100570;28;20032;-53
2023/08/03 05:16:02;;;;;;;7.32;2.30;;;;;;;15.44;100.00;99300.44;5101694;28;20039;-53
2023/08/03 05:18:28;;;;;;;5.95;1.80;;;;;;;15.43;100.00;99302.28;5100661;28;20013;-53
2023/08/03 05:20:53;;;;;;;5.75;2.33;;;;;;;15.46;100.00;99311.78;5100315;28;20034;-53
2023/08/03 05:23:19;;;;;;;7.53;2.13;;;;;;;15.46;100.00;99315.28;5098507;28;20052;-57
2023/08/03 05:25:45;;;;;;;4.18;1.80;;;;;;;15.45;100.00;99321.63;5102822;28;20537;-56
2023/08/03 05:28:10;;;;;;;9.65;2.47;;;;;;;15.45;100.00;99332.34;5097213;28;20103;-52
2023/08/03 05:30:36;;;;;;;6.50;2.03;;;;;;;15.46;100.00;99325.16;5097838;28;20031;-53
2023/08/03 05:33:02;;;;;;;7.32;2.05;;;;;;;15.47;100.00;99329.47;5101172;28;20043;-53
2023/08/03 05:35:28;;;;;;;10.32;2.33;;;;;;;15.46;100.00;99333.19;5102299;28;20115;-55
2023/08/03 05:37:53;;;;;;;7.00;2.05;;;;;;;15.48;100.00;99331.16;5102469;28;20028;-53
2023/08/03 05:40:20;;;;;;;8.57;2.30;;;;;;;15.47;100.00;99342.84;5100082;28;20032;-54
2023/08/03 05:42:46;;;;;;;9.88;2.35;;;;;;;15.50;100.00;99338.00;5101952;28;20524;-55
2023/08/03 05:45:32;;;;;;;10.70;2.28;;;;;;;15.51;100.00;99336.13;5101349;28;20021;-57
2023/08/03 05:47:58;;;;;;;9.43;2.40;;;;;;;15.53;100.00;99350.97;5098766;28;20031;-54
2023/08/03 05:50:23;;;;;;;11.27;2.75;;;;;;;15.53;100.00;99360.84;5095445;28;20024;-53
2023/08/03 05:52:50;;;;;;;7.68;2.13;;;;;;;15.52;100.00;99354.69;5102103;28;20040;-53
2023/08/03 05:55:16;;;;;;;6.57;1.90;;;;;;;15.52;100.00;99364.53;5103340;28;20157;-52
2023/08/03 05:57:42;;;;;;;8.38;2.22;;;;;;;15.54;100.00;99374.06;5100180;28;20110;-53
2023/08/03 06:00:14;;;;;;;8.88;2.80;;;;;;;15.54;100.00;99375.91;5101268;28;20020;-51
2023/08/03 06:02:41;;;;;;;9.63;2.30;;;;;;;15.52;100.00;99376.09;5096574;28;20173;-50
2023/08/03 06:05:26;;;;;;;11.18;2.53;;;;;;;15.53;100.00;99376.91;5092676;28;20297;-53
2023/08/03 06:07:52;;;;;;;7.30;2.33;;;;;;;15.53;100.00;99382.25;5095034;28;20032;-51
2023/08/03 06:10:17;;;;;;;9.40;2.30;;;;;;;15.55;100.00;99388.25;5090826;28;20027;-51
2023/08/03 06:12:43;;;;;;;8.05;2.22;;;;;;;15.57;100.00;99394.28;5091534;28;20036;-51
2023/08/03 06:15:10;;;;;;;9.50;2.47;;;;;;;15.60;100.00;99395.72;5093832;28;20026;-53
2023/08/03 06:17:35;;;;;;;8.57;2.42;;;;;;;15.62;100.00;99407.94;5099160;28;20027;-55
2023/08/03 06:20:00;;;;;;;8.32;2.28;;;;;;;15.63;100.00;99401.53;5110667;27;20028;-54
2023/08/03 06:22:26;;;;;;;10.20;2.35;;;;;;;15.64;100.00;99405.06;5094247;28;20028;-52
2023/08/03 06:24:51;;;;;;;8.52;2.40;;;;;;;15.65;100.00;99406.72;5091338;28;20020;-52
2023/08/03 06:27:16;;;;;;;7.97;2.20;;;;;;;15.64;100.00;99403.22;5094605;28;20027;-51
2023/08/03 06:29:43;;;;;;;10.32;2.15;;;;;;;15.66;100.00;99409.19;5099628;27;20040;-52
2023/08/03 06:32:16;;;;;;;6.15;2.17;;;;;;;15.68;100.00;99411.69;5092015;28;20065;-52
2023/08/03 06:34:42;;;;;;;15.40;2.70;;;;;;;15.67;100.00;99410.03;5099687;28;20116;-52
2023/08/03 06:37:09;;;;;;;10.93;2.15;;;;;;;15.67;100.00;99421.56;5101651;28;20089;-52
2023/08/03 06:39:34;;;;;;;7.95;2.20;;;;;;;15.68;100.00;99425.06;5101725;28;20072;-55
2023/08/03 06:42:02;;;;;;;11.57;2.70;;;;;;;15.70;100.00;99428.38;5097380;28;20118;-54
2023/08/03 06:44:28;;;;;;;12.98;3.00;;;;;;;15.69;100.00;99429.44;5096870;28;20054;-54
2023/08/03 06:46:53;;;;;;;10.20;1.95;;;;;;;15.68;100.00;99439.28;5096870;28;20035;-55
2023/08/03 06:49:19;;;;;;;10.00;2.55;;;;;;;15.70;100.00;99439.94;5096696;28;20107;-53
2023/08/03 06:51:44;;;;;;;4.80;2.00;;;;;;;15.67;100.00;99437.63;5091998;28;20042;-55
2023/08/03 06:54:09;;;;;;;7.88;2.10;;;;;;;15.72;100.00;99448.63;5098239;28;20102;-53
2023/08/03 06:56:36;;;;;;;9.50;1.80;;;;;;;15.70;100.00;99458.69;5093511;28;20036;-52
2023/08/03 06:59:02;;;;;;;7.45;2.08;;;;;;;15.72;100.00;99471.84;5098684;28;20115;-53
2023/08/03 07:01:27;;;;;;;9.45;1.70;;;;;;;15.73;100.00;99466.31;5100947;28;20165;-54
2023/08/03 07:03:52;;;;;;;3.97;1.70;;;;;;;15.78;100.00;99470.34;5094626;28;20497;-54
2023/08/03 07:06:18;;;;;;;9.73;2.33;;;;;;;15.79;100.00;99486.22;5092243;28;20376;-52
2023/08/03 07:08:43;;;;;;;6.10;1.92;;;;;;;15.79;100.00;99483.53;5102194;28;20019;-54
2023/08/03 07:11:08;;;;;;;6.20;1.83;;;;;;;15.84;100.00;99485.66;5097103;28;20453;-54
2023/08/03 07:13:34;;;;;;;5.85;1.70;;;;;;;15.87;100.00;99488.81;5092687;28;20028;-54
2023/08/03 07:16:07;;;;;;;7.10;2.10;;;;;;;15.89;100.00;99488.63;5098866;28;20032;-54
2023/08/03 07:18:32;;;;;;;6.85;1.73;;;;;;;15.93;100.00;99503.28;5095206;28;20024;-56
2023/08/03 07:21:02;;;;;;;6.38;1.80;;;;;;;15.96;100.00;99492.19;5093091;28;20036;-52
2023/08/03 07:23:28;;;;;;;7.35;2.25;;;;;;;15.99;100.00;99499.88;5094554;28;20051;-56
2023/08/03 07:25:53;;;;;;;7.65;1.90;;;;;;;16.01;100.00;99516.56;5096632;28;20099;-53
2023/08/03 07:28:18;;;;;;;6.43;1.98;;;;;;;16.01;100.00;99513.91;5101670;28;20051;-56
2023/08/03 07:30:44;;;;;;;7.80;1.80;;;;;;;16.01;100.00;99505.88;5098342;28;20024;-53
2023/08/03 07:33:09;;;;;;;8.45;2.22;;;;;;;16.07;100.00;99502.44;5096091;28;20052;-56
2023/08/03 07:35:37;;;;;;;5.95;1.83;;;;;;;16.20;100.00;99514.34;5099004;28;20053;-56
2023/08/03 07:38:02;;;;;;;8.15;2.30;;;;;;;16.31;100.00;99515.72;5102843;28;20027;-56
2023/08/03 07:40:27;;;;;;;7.78;1.90;;;;;;;16.36;100.00;99516.81;5101011;28;20028;-55
2023/08/03 07:42:53;;;;;;;9.80;2.55;;;;;;;16.37;100.00;99518.47;5096584;28;20055;-56
2023/08/03 07:45:18;;;;;;;10.40;2.50;;;;;;;16.34;100.00;99518.03;5099513;28;20043;-55
2023/08/03 07:47:43;;;;;;;14.85;2.45;;;;;;;16.35;100.00;99520.50;5099429;28;20051;-54
2023/08/03 07:50:09;;;;;;;10.82;2.35;;;;;;;16.34;100.00;99528.75;5097050;28;20114;-55
2023/08/03 07:52:35;;;;;;;9.27;2.22;;;;;;;16.35;100.00;99522.34;5103230;28;20023;-53
2023/08/03 07:55:00;;;;;;;6.93;2.28;;;;;;;16.34;100.00;99534.13;5100798;28;20469;-55
2023/08/03 07:57:25;;;;;;;12.63;2.40;;;;;;;16.34;100.00;99544.84;5102731;28;20038;-53
2023/08/03 07:59:51;;;;;;;10.02;2.33;;;;;;;16.28;100.00;99536.50;5095054;28;20020;-55
2023/08/03 08:02:16;;;;;;;10.57;2.55;;;;;;;16.28;100.00;99557.94;5093965;28;20024;-52
2023/08/03 08:04:42;;;;;;;7.63;2.33;;;;;;;16.26;100.00;99554.63;5091102;28;20478;-52
2023/08/03 08:07:07;;;;;;;11.93;2.58;;;;;;;16.25;100.00;99573.56;5090415;28;20028;-55
2023/08/03 08:09:32;;;;;;;9.95;2.38;;;;;;;16.20;100.00;99571.41;5093863;28;20030;-53
2023/08/03 08:11:58;;;;;;;10.48;2.22;;;;;;;16.16;100.00;99572.00;5058260;28;20338;-52
2023/08/03 08:14:23;;;;;;;10.55;2.75;;;;;;;16.14;100.00;99584.72;5088821;28;20024;-53
2023/08/03 08:16:49;;;;;;;11.23;3.13;;;;;;;16.14;100.00;99590.94;5095049;28;20031;-52
2023/08/03 08:19:14;;;;;;;9.60;2.75;;;;;;;16.08;100.00;99594.34;5087674;28;20020;-52
2023/08/03 08:21:39;;;;;;;13.50;2.13;;;;;;;16.11;100.00;99601.19;5094876;28;20058;-53
2023/08/03 08:24:04;;;;;;;9.70;2.33;;;;;;;16.13;100.00;99604.50;5088569;28;20115;-53
2023/08/03 08:26:31;;;;;;;9.05;2.22;;;;;;;16.17;100.00;99606.63;5094375;28;20055;-53
2023/08/03 08:28:58;;;;;;;7.25;2.25;;;;;;;16.18;100.00;99613.66;5093225;28;20036;-53
2023/08/03 08:31:24;;;;;;;11.43;2.42;;;;;;;16.21;100.00;99618.63;5091153;28;20089;-52
2023/08/03 08:33:49;;;;;;;8.75;2.05;;;;;;;16.23;100.00;99618.44;5097620;28;20060;-52
2023/08/03 08:36:15;;;;;;;7.63;2.08;;;;;;;16.24;100.00;99625.50;5095576;28;20066;-53
2023/08/03 08:38:40;;;;;;;10.70;2.50;;;;;;;16.26;100.00;99634.16;5095344;28;20138;-53
2023/08/03 08:41:05;;;;;;;10.57;2.38;;;;;;;16.29;100.00;99628.44;5098498;28;20060;-53
2023/08/03 08:43:31;;;;;;;9.43;2.40;;;;;;;16.31;100.00;99638.97;5089616;28;20497;-52
2023/08/03 08:45:57;;;;;;;6.55;2.10;;;;;;;16.30;100.00;99645.34;5093678;28;20074;-55
2023/08/03 08:48:22;;;;;;;7.03;2.00;;;;;;;16.32;100.00;99648.66;5098131;28;20051;-55
2023/08/03 08:50:49;;;;;;;6.70;2.03;;;;;;;16.29;100.00;99655.25;5097139;28;20110;-51
2023/08/03 08:53:15;;;;;;;7.45;1.67;;;;;;;16.34;100.00;99655.50;5088081;28;20505;-53
2023/08/03 08:55:40;;;;;;;5.93;2.15;;;;;;;16.40;100.00;99654.78;5094082;28;20028;-54
2023/08/03 08:58:06;;;;;;;3.53;1.73;;;;;;;16.42;100.00;99667.97;5095145;28;20076;-51
2023/08/03 09:00:41;;;;;;;6.28;1.48;;;;;;;16.42;100.00;99665.28;5112709;28;20028;-53
2023/08/03 09:03:07;;;;;;;5.28;1.67;;;;;;;16.36;100.00;99672.22;5096426;28;20032;-53
2023/08/03 09:05:33;;;;;;;5.68;1.42;;;;;;;16.33;100.00;99680.63;5094136;28;20031;-52
2023/08/03 09:07:59;;;;;;;4.40;1.20;;;;;;;16.30;100.00;99680.16;5095398;28;20417;-54
2023/08/03 09:10:24;;;;;;;4.43;1.40;;;;;;;16.28;100.00;99680.34;5094512;28;20025;-52
2023/08/03 09:12:50;;;;;;;3.58;1.45;;;;;;;16.26;100.00;99701.16;5098397;28;20827;-52
2023/08/03 09:15:15;;;;;;;4.53;1.30;;;;;;;16.26;100.00;99699.28;5085905;28;20061;-52
2023/08/03 09:17:42;;;;;;;1.90;0.93;;;;;;;16.30;100.00;99710.47;5100701;28;20028;-52
2023/08/03 09:20:21;;;;;;;3.35;1.20;;;;;;;16.36;100.00;99715.09;5076253;28;20604;-53
2023/08/03 09:22:47;;;;;;;4.75;1.20;;;;;;;16.38;100.00;99721.09;5096569;28;20046;-54
2023/08/03 09:25:12;;;;;;;4.68;1.35;;;;;;;16.38;100.00;99723.78;5092763;28;20024;-55
2023/08/03 09:27:51;;;;;;;2.63;1.08;;;;;;;16.42;100.00;99726.94;5094371;28;20028;-53
2023/08/03 09:30:18;;;;;;;3.13;1.52;;;;;;;16.43;100.00;99734.78;5091260;28;20052;-52
2023/08/03 09:32:45;;;;;;;4.35;1.60;;;;;;;16.45;100.00;99743.50;5090560;28;20024;-52
2023/08/03 09:35:17;;;;;;;7.50;2.63;;;;;;;16.48;100.00;99752.19;5096909;28;20517;-55
2023/08/03 09:37:42;;;;;;;8.10;2.08;;;;;;;16.49;100.00;99759.19;5091136;28;20036;-53
2023/08/03 09:40:09;;;;;;;8.65;2.00;;;;;;;16.53;100.00;99752.47;5093386;28;20024;-55
2023/08/03 09:42:36;;;;;;;9.25;2.50;;;;;;;16.54;100.00;99762.19;5101805;28;20040;-55
2023/08/03 09:45:03;;;;;;;7.45;2.55;;;;;;;16.62;100.00;99770.13;5097412;28;20501;-55
2023/08/03 09:47:29;;;;;;;9.32;2.22;;;;;;;16.69;100.00;99778.28;5100808;28;20020;-50
2023/08/03 09:49:56;;;;;;;10.68;2.88;;;;;;;16.74;100.00;99787.44;5100037;28;20028;-54
2023/08/03 09:52:27;;;;;;;8.68;2.35;;;;;;;16.78;100.00;99785.22;5095340;28;20027;-51
2023/08/03 09:55:19;;;;;;;11.30;2.58;;;;;;;16.85;100.00;99798.75;5096963;28;20052;-52
2023/08/03 09:57:59;;;;;;;10.25;2.47;;;;;;;16.87;100.00;99807.44;5099023;28;20028;-50
2023/08/03 10:00:25;;;;;;;8.80;2.53;;;;;;;16.90;100.00;99799.03;5098455;28;20032;-52
2023/08/03 10:03:00;;;;;;;10.75;2.78;;;;;;;16.95;100.00;99801.97;5097290;28;20397;-50
2023/08/03 10:05:29;;;;;;;10.25;2.92;;;;;;;16.95;100.00;99815.41;5098580;28;20440;-50
2023/08/03 10:08:13;;;;;;;;;;;;;;;17.05;100.00;99815.13;5094671;28;20500;-50
2023/08/03 10:10:45;;;;;;;9.93;2.63;;;;;;;17.07;100.00;99821.97;5094510;28;20399;-50
2023/08/03 10:13:11;;;;;;;12.98;3.25;;;;;;;17.13;100.00;99813.16;5094108;28;20028;-50
2023/08/03 10:15:37;;;;;;;8.73;2.45;;;;;;;17.24;100.00;99832.53;5096547;28;20076;-50
2023/08/03 10:18:03;;;;;;;8.55;2.22;;;;;;;17.43;100.00;99828.44;5096894;28;20016;-50
2023/08/03 10:20:29;;;;;;;7.15;2.28;;;;;;;17.62;100.00;99830.53;5097404;28;20741;-52
2023/08/03 10:23:17;;;;;;;7.70;2.80;;;;;;;17.91;100.00;99831.50;5078711;28;20549;-51
2023/08/03 10:26:00;;;;;;;5.50;2.00;;;;;;;18.11;100.00;99829.00;5097080;28;20110;-50
2023/08/03 10:28:37;;;;;;;8.52;2.10;;;;;;;18.27;100.00;99831.44;5087753;28;20077;-50
2023/08/03 10:31:06;;;;;;;4.82;1.80;;;;;;;18.37;100.00;99835.66;5093316;28;20465;-51
2023/08/03 10:33:46;;;;;;;4.07;1.70;;;;;;;18.48;100.00;99837.81;5094260;28;20092;-51
2023/08/03 10:36:30;;;;;;;3.80;1.70;;;;;;;18.63;100.00;99838.56;5091940;28;20031;-51
2023/08/03 10:38:55;;;;;;;5.00;1.83;;;;;;;18.65;100.00;99849.97;5093681;28;20040;-51
2023/08/03 10:41:25;;;;;;;4.23;1.80;;;;;;;18.70;100.00;99846.69;5094199;28;20081;-52
2023/08/03 10:44:05;;;;;;;4.80;1.98;;;;;;;18.88;100.00;99848.09;5089805;28;20309;-50
2023/08/03 10:46:35;;;;;;;4.93;1.90;;;;;;;18.91;100.00;99853.91;5094659;28;20062;-52
2023/08/03 10:49:21;;;;;;;5.22;1.70;;;;;;;19.20;100.00;99854.69;5093839;28;20033;-54
2023/08/03 10:51:47;;;;;;;6.30;2.05;;;;;;;19.34;100.00;99858.31;5075031;28;20059;-54
2023/08/03 10:54:14;;;;;;;9.07;2.13;;;;;;;19.44;100.00;99863.34;5093793;28;20405;-51
2023/08/03 10:56:39;;;;;;;5.13;2.20;;;;;;;19.49;100.00;99858.19;5093732;28;20024;-52
2023/08/03 10:59:05;;;;;;;7.13;1.95;;;;;;;19.56;100.00;99869.81;5093121;28;20111;-51
2023/08/03 11:01:31;;;;;;;9.15;2.25;;;;;;;19.64;100.00;99872.34;5094677;28;20121;-52
2023/08/03 11:03:58;;;;;;;7.85;2.13;;;;;;;19.56;100.00;99878.72;5094758;28;20059;-51
2023/08/03 11:06:27;;;;;;;6.13;2.10;;;;;;;19.49;100.00;99896.72;5098088;28;20016;-51
2023/08/03 11:08:54;;;;;;;11.23;2.95;;;;;;;19.53;100.00;99887.19;5095652;28;20030;-51
2023/08/03 11:11:23;;;;;;;6.18;1.85;;;;;;;19.49;100.00;99893.19;5096413;28;20024;-51
2023/08/03 11:13:49;;;;;;;6.22;2.80;;;;;;;19.52;100.00;99899.00;5093580;28;20036;-51
2023/08/03 11:16:15;;;;;;;10.60;2.70;;;;;;;19.47;100.00;99903.31;5087718;28;20081;-51
2023/08/03 11:18:45;;;;;;;10.00;2.30;;;;;;;19.33;100.00;99907.81;5089070;28;20034;-53